• Join FlightAware (Why Join?)
  • Login
  • US Flag 
Gobble Gobble! 
05:54AM EST


 

Airport Tracker/Info


-or-


 

Live Flight TrackerFlight Track Log ✈ UAL3779 ✈ 13-Apr-2013 ✈ KORD - KBDL

Flight Track Log - Related Links

Times and Time Zones

All times are in EDT time to prevent confusion due to time zone crossing. See the UAL3779 flight status page for this flight to view local times or setup timezone preferences in your user account.

Time Position Orientation Groundspeed Altitude Reporting Facility
EDT Latitude Longitude Course Direction KTS MPH feet Rate Location/Type
08:51PM 42.0000 -87.9333 37° Northeast 170 196 1,800  Level Chicago TRACON
08:52PM 42.0333 -87.9000 37° Northeast 232 267 4,000 2,400 Climbing Chicago TRACON
08:53PM 42.0500 -87.8000 77° East 287 330 6,400 2,460 Climbing Chicago TRACON
08:54PM 42.0642 -87.5853 85° East 325 374 11,300 2,460 Climbing Chicago Center
08:56PM 42.0756 -87.4511 83° East 358 412 13,600 1,920 Climbing Chicago Center
08:57PM 42.0908 -87.3047 82° East 393 452 15,300 1,980 Climbing Chicago Center
08:58PM 42.1044 -87.1478 83° East 419 482 17,700 2,160 Climbing Chicago Center
08:59PM 42.1153 -86.9892 85° East 425 489 19,800 1,860 Climbing Chicago Center
09:00PM 42.1214 -86.8225 87° East 443 510 21,500 1,680 Climbing Chicago Center
09:01PM 42.1269 -86.6481 87° East 456 525 23,300 1,560 Climbing Chicago Center
09:02PM 42.1344 -86.4708 87° East 469 540 24,800 1,320 Climbing Chicago Center
09:03PM 42.1392 -86.2886 88° East 483 556 26,100 1,560 Climbing Chicago Center
09:04PM 42.1456 -86.0647 88° East 495 570 28,000 1,260 Climbing Chicago Center
09:05PM 42.1417 -85.8922 92° East 502 578 28,700 960 Climbing Chicago Center
09:06PM 42.1414 -85.6989 90° East 515 593 30,000 1,020 Climbing Chicago Center
09:07PM 42.1400 -85.5025 90° East 526 605 30,900 1,200 Climbing Chicago Center
09:08PM 42.1392 -85.3067 90° East 527 606 32,500 1,200 Climbing Chicago Center
09:08PM 42.1406 -85.1931 89° East 518 596 32,800 900 Climbing Cleveland Center
09:09PM 42.1397 -84.9969 90° East 518 596 33,900 900 Climbing Cleveland Center
09:10PM 42.1347 -84.7978 92° East 523 602 34,600 900 Climbing Cleveland Center
09:11PM 42.1286 -84.6208 93° East 528 608 35,800 1,020 Climbing Cleveland Center
09:12PM 42.1339 -84.4111 88° East 521 600 36,700 600 Climbing Cleveland Center
09:13PM 42.1531 -84.1992 83° East 514 592 37,000 120 Climbing Cleveland Center
09:14PM 42.1739 -84.0014 82° East 519 597 37,000  Level Cleveland Center
09:15PM 42.1942 -83.8036 82° East 524 603 37,000  Level Cleveland Center
09:16PM 42.2183 -83.6056 81° East 524 603 37,000  Level Cleveland Center
09:17PM 42.2294 -83.4128 85° East 524 603 37,000  Level Cleveland Center
09:18PM 42.2300 -83.2136 90° East 518 596 37,000  Level Cleveland Center
09:19PM 42.2297 -83.0342 90° East 518 596 37,000  Level Cleveland Center
09:20PM 42.2317 -82.8378 89° East 523 602 37,000  Level Cleveland Center
09:21PM 42.2314 -82.6386 90° East 523 602 37,000  Level Cleveland Center
09:22PM 42.2325 -82.4397 90° East 523 602 37,000  Level Cleveland Center
09:23PM 42.2336 -82.2433 89° East 523 602 37,000  Level Cleveland Center
09:24PM 42.2319 -82.0414 91° East 528 608 37,000  Level Cleveland Center
09:25PM 42.2325 -81.8394 90° East 533 613 37,000  Level Cleveland Center
09:26PM 42.2322 -81.6458 90° East 533 613 37,000  Level Cleveland Center
09:27PM 42.2297 -81.4442 91° East 533 613 37,000  Level Cleveland Center
09:28PM 42.2292 -81.2281 90° East 533 613 37,000  Level Cleveland Center
09:29PM 42.2281 -81.0289 90° East 533 613 37,000  Level Cleveland Center
09:30PM 42.2244 -80.8300 91° East 533 613 37,000  Level Cleveland Center
09:31PM 42.2225 -80.6281 91° East 533 613 37,000  Level Cleveland Center
09:32PM 42.2372 -80.4289 84° East 533 613 37,000  Level Cleveland Center
09:33PM 42.2514 -80.2297 84° East 533 613 37,000  Level Cleveland Center
09:34PM 42.2672 -80.0306 84° East 540 621 37,000  Level Cleveland Center
09:35PM 42.2828 -79.8311 84° East 540 621 37,000  Level Cleveland Center
09:36PM 42.3000 -79.6258 83° East 540 621 37,000  Level Cleveland Center
09:37PM 42.3147 -79.4264 84° East 540 621 37,000  Level Cleveland Center
09:38PM 42.3314 -79.2208 84° East 540 621 37,000  Level Cleveland Center
09:39PM 42.3453 -79.0183 85° East 540 621 37,000  Level Cleveland Center
09:40PM 42.3611 -78.8128 84° East 540 621 37,000  Level Cleveland Center
09:41PM 42.3767 -78.6100 84° East 540 621 37,000  Level Cleveland Center
09:42PM 42.3917 -78.4072 84° East 540 621 37,000 -540 Level Cleveland Center
09:43PM 42.4064 -78.2042 84° East 540 621 36,000 -1,020 Descending Cleveland Center
09:44PM 42.4186 -77.9928 85° East 546 628 35,000 -540 Descending Cleveland Center
09:45PM 42.4333 -77.8150 84° East 546 628 35,000  Level Cleveland Center
09:47PM 42.4544 -77.4503 85° East 538 619 35,000  Level Boston Center
09:48PM 42.4650 -77.2539 86° East 532 612 35,000  Level Boston Center
09:49PM 42.4714 -77.0517 87° East 532 612 35,000  Level Boston Center
09:50PM 42.4731 -76.8544 89° East 532 612 35,000  Level Boston Center
09:51PM 42.4722 -76.6572 90° East 532 612 35,000  Level Boston Center
09:52PM 42.4708 -76.4600 90° East 532 612 35,000 -120 Level Boston Center
09:53PM 42.4697 -76.2572 90° East 532 612 34,800 -840 Descending Boston Center
09:54PM 42.4722 -76.0489 89° East 538 619 33,300 -1,500 Descending Boston Center
09:55PM 42.4725 -75.8433 90° East 548 631 31,800 -1,380 Descending Boston Center
09:56PM 42.4719 -75.6464 90° East 540 621 30,300 -1,500 Descending Boston Center
09:57PM 42.4694 -75.4294 91° East 504 580 28,500 -1,500 Descending Boston Center
09:58PM 42.4689 -75.2858 90° East 484 557 27,300 -1,560 Descending Boston Center
09:59PM 42.4678 -75.0747 90° East 472 543 25,500 -1,380 Descending Boston Center
10:00PM 42.4717 -74.9058 88° East 461 531 24,600 -1,320 Descending Boston Center
10:01PM 42.4750 -74.7428 88° East 447 514 22,900 -1,740 Descending Boston Center
10:02PM 42.4786 -74.5600 88° East 437 503 21,100 -1,680 Descending Boston Center
10:03PM 42.4836 -74.3994 88° East 432 497 19,600 -1,560 Descending Boston Center
10:04PM 42.4822 -74.2278 91° East 441 507 18,100 -1,500 Descending Boston Center
10:05PM 42.4844 -74.0869 89° East 429 494 16,700 -1,500 Descending Boston Center
10:06PM 42.4617 -73.9203 100° East 412 474 15,100 -900 Descending Boston Center
10:07PM 42.4319 -73.7903 107° East 402 463 15,000 -60 Descending Boston Center
10:08PM 42.3942 -73.6292 108° East 407 468 15,000 -240 Level Boston Center
10:09PM 42.3622 -73.4994 108° East 407 468 14,600 -1,260 Descending Boston Center
10:10PM 42.3281 -73.3500 107° East 394 453 12,500 -1,800 Descending Boston Center
10:11PM 42.2914 -73.2092 109° East 374 430 11,000 -1,020 Descending Boston Center
10:12PM 42.2692 -73.1106 107° East 354 407 10,500 -1,200 Descending Boston Center
10:13PM 42.2406 -72.9925 108° East 310 357 8,700 -1,680 Descending Boston Center
10:14PM 42.2161 -72.8997 110° East 294 338 7,200 -1,620 Descending Boston Center
10:15PM 42.1853 -72.7875 110° East 294 338 5,500 -1,560 Descending Boston Center
10:16PM 42.1311 -72.7033 131° Southeast 271 312 3,900 -1,260 Descending Boston Center
10:17PM 42.0939 -72.6444 130° Southeast 269 310 3,000 -660 Descending Boston Center
10:18PM 42.0481 -72.5772 133° Southeast 182 209 2,600 -480 Descending Boston Center
10:19PM 42.0147 -72.5853 190° South 130 150 2,100 -540 Descending Boston Center
10:20PM 41.9939 -72.6189 230° Southwest 118 136 1,500 -660 Descending Boston Center
10:21PM 41.9689 -72.6467 220° Southwest 117 135 800 -600 Descending Boston Center
10:22PM 41.9519 -72.6744 231° Southwest 126 145 300 -540 Descending Boston Center
10:24PM 41.9333 -72.6833 176° South  Level FlightAware Approximate
10:31PM 41.9392 -72.6834 176° South  Level Estimated
10:32PM 41.9333 -72.6833 176° South  Level FlightAware Approximate
10:33PM 41.9392 -72.6834 176° South  Level Estimated
10:34PM 41.9333 -72.6833 176° South  Level FlightAware Approximate